sensor_id;sensor_type;location;lat;lon;timestamp;temperature;humidity
21627;DHT22;10975;47.872;12.972;2023-08-08T00:00:54;12.60;99.90
21627;DHT22;10975;47.872;12.972;2023-08-08T00:03:21;12.70;99.90
21627;DHT22;10975;47.872;12.972;2023-08-08T00:05:48;12.70;99.90
21627;DHT22;10975;47.872;12.972;2023-08-08T00:08:14;12.70;99.90
21627;DHT22;10975;47.872;12.972;2023-08-08T00:10:41;12.70;99.90
21627;DHT22;10975;47.872;12.972;2023-08-08T00:13:08;12.60;99.90
21627;DHT22;10975;47.872;12.972;2023-08-08T00:15:36;12.60;99.90
21627;DHT22;10975;47.872;12.972;2023-08-08T00:18:03;12.60;99.90
21627;DHT22;10975;47.872;12.972;2023-08-08T00:20:30;12.60;99.90
21627;DHT22;10975;47.872;12.972;2023-08-08T00:22:56;12.50;99.90
21627;DHT22;10975;47.872;12.972;2023-08-08T00:25:23;12.50;99.90
21627;DHT22;10975;47.872;12.972;2023-08-08T00:27:50;12.40;99.90
21627;DHT22;10975;47.872;12.972;2023-08-08T00:30:17;12.50;99.90
21627;DHT22;10975;47.872;12.972;2023-08-08T00:32:43;12.60;99.90
21627;DHT22;10975;47.872;12.972;2023-08-08T00:35:10;12.60;99.90
21627;DHT22;10975;47.872;12.972;2023-08-08T00:37:37;12.60;99.90
21627;DHT22;10975;47.872;12.972;2023-08-08T00:40:04;12.60;99.90
21627;DHT22;10975;47.872;12.972;2023-08-08T00:42:31;12.70;99.90
21627;DHT22;10975;47.872;12.972;2023-08-08T00:44:57;12.70;99.90
21627;DHT22;10975;47.872;12.972;2023-08-08T00:47:30;12.70;99.90
21627;DHT22;10975;47.872;12.972;2023-08-08T00:49:57;12.70;99.90
21627;DHT22;10975;47.872;12.972;2023-08-08T00:52:24;12.70;99.90
21627;DHT22;10975;47.872;12.972;2023-08-08T00:54:52;12.60;99.90
21627;DHT22;10975;47.872;12.972;2023-08-08T00:57:19;12.70;99.90
21627;DHT22;10975;47.872;12.972;2023-08-08T00:59:46;12.60;99.90
21627;DHT22;10975;47.872;12.972;2023-08-08T01:02:12;12.60;99.90
21627;DHT22;10975;47.872;12.972;2023-08-08T01:04:39;12.60;99.90
21627;DHT22;10975;47.872;12.972;2023-08-08T01:09:37;12.60;99.90
21627;DHT22;10975;47.872;12.972;2023-08-08T01:12:05;12.60;99.90
21627;DHT22;10975;47.872;12.972;2023-08-08T01:14:34;12.50;99.90
21627;DHT22;10975;47.872;12.972;2023-08-08T01:17:01;12.60;99.90
21627;DHT22;10975;47.872;12.972;2023-08-08T01:19:29;12.60;99.90
21627;DHT22;10975;47.872;12.972;2023-08-08T01:21:57;12.60;99.90
21627;DHT22;10975;47.872;12.972;2023-08-08T01:24:26;12.60;99.90
21627;DHT22;10975;47.872;12.972;2023-08-08T01:26:55;12.50;99.90
21627;DHT22;10975;47.872;12.972;2023-08-08T01:29:22;12.50;99.90
21627;DHT22;10975;47.872;12.972;2023-08-08T01:31:49;12.60;99.90
21627;DHT22;10975;47.872;12.972;2023-08-08T01:34:16;12.50;99.90
21627;DHT22;10975;47.872;12.972;2023-08-08T01:36:50;12.50;99.90
21627;DHT22;10975;47.872;12.972;2023-08-08T01:39:20;12.50;99.90
21627;DHT22;10975;47.872;12.972;2023-08-08T01:41:47;12.40;99.90
21627;DHT22;10975;47.872;12.972;2023-08-08T01:44:15;12.40;99.90
21627;DHT22;10975;47.872;12.972;2023-08-08T01:46:42;12.40;99.90
21627;DHT22;10975;47.872;12.972;2023-08-08T01:49:08;12.40;99.90
21627;DHT22;10975;47.872;12.972;2023-08-08T01:51:35;12.30;99.90
21627;DHT22;10975;47.872;12.972;2023-08-08T01:54:02;12.30;99.90
21627;DHT22;10975;47.872;12.972;2023-08-08T01:56:29;12.40;99.90
21627;DHT22;10975;47.872;12.972;2023-08-08T01:58:56;12.30;99.90
21627;DHT22;10975;47.872;12.972;2023-08-08T02:01:23;12.30;99.90
21627;DHT22;10975;47.872;12.972;2023-08-08T02:03:49;12.30;99.90
21627;DHT22;10975;47.872;12.972;2023-08-08T02:06:16;12.30;99.90
21627;DHT22;10975;47.872;12.972;2023-08-08T02:08:44;12.30;99.90
21627;DHT22;10975;47.872;12.972;2023-08-08T02:11:11;12.30;99.90
21627;DHT22;10975;47.872;12.972;2023-08-08T02:13:38;12.30;99.90
21627;DHT22;10975;47.872;12.972;2023-08-08T02:16:04;12.30;99.90
21627;DHT22;10975;47.872;12.972;2023-08-08T02:18:31;12.30;99.90
21627;DHT22;10975;47.872;12.972;2023-08-08T02:20:58;12.30;99.90
21627;DHT22;10975;47.872;12.972;2023-08-08T02:23:24;12.30;99.90
21627;DHT22;10975;47.872;12.972;2023-08-08T02:25:52;12.30;99.90
21627;DHT22;10975;47.872;12.972;2023-08-08T02:28:19;12.40;99.90
21627;DHT22;10975;47.872;12.972;2023-08-08T02:30:46;12.40;99.90
21627;DHT22;10975;47.872;12.972;2023-08-08T02:33:13;12.40;99.90
21627;DHT22;10975;47.872;12.972;2023-08-08T02:35:39;12.40;99.90
21627;DHT22;10975;47.872;12.972;2023-08-08T02:38:06;12.40;99.90
21627;DHT22;10975;47.872;12.972;2023-08-08T02:40:33;12.40;99.90
21627;DHT22;10975;47.872;12.972;2023-08-08T02:43:00;12.40;99.90
21627;DHT22;10975;47.872;12.972;2023-08-08T02:45:26;12.30;99.90
21627;DHT22;10975;47.872;12.972;2023-08-08T02:47:53;12.30;99.90
21627;DHT22;10975;47.872;12.972;2023-08-08T02:50:20;12.40;99.90
21627;DHT22;10975;47.872;12.972;2023-08-08T02:52:47;12.30;99.90
21627;DHT22;10975;47.872;12.972;2023-08-08T02:55:14;12.40;99.90
21627;DHT22;10975;47.872;12.972;2023-08-08T02:57:40;12.30;99.90
21627;DHT22;10975;47.872;12.972;2023-08-08T03:00:07;12.40;99.90
21627;DHT22;10975;47.872;12.972;2023-08-08T03:02:34;12.40;99.90
21627;DHT22;10975;47.872;12.972;2023-08-08T03:05:01;12.40;99.90
21627;DHT22;10975;47.872;12.972;2023-08-08T03:07:28;12.40;99.90
21627;DHT22;10975;47.872;12.972;2023-08-08T03:09:54;12.40;99.90
21627;DHT22;10975;47.872;12.972;2023-08-08T03:12:21;12.40;99.90
21627;DHT22;10975;47.872;12.972;2023-08-08T03:14:48;12.30;99.90
21627;DHT22;10975;47.872;12.972;2023-08-08T03:17:15;12.30;99.90
21627;DHT22;10975;47.872;12.972;2023-08-08T03:19:41;12.20;99.90
21627;DHT22;10975;47.872;12.972;2023-08-08T03:22:08;12.20;99.90
21627;DHT22;10975;47.872;12.972;2023-08-08T03:24:35;12.20;99.90
21627;DHT22;10975;47.872;12.972;2023-08-08T03:27:01;12.10;99.90
21627;DHT22;10975;47.872;12.972;2023-08-08T03:29:28;12.10;99.90
21627;DHT22;10975;47.872;12.972;2023-08-08T03:31:55;12.00;99.90
21627;DHT22;10975;47.872;12.972;2023-08-08T03:34:21;12.00;99.90
21627;DHT22;10975;47.872;12.972;2023-08-08T03:36:51;12.00;99.90
21627;DHT22;10975;47.872;12.972;2023-08-08T03:39:18;12.00;99.90
21627;DHT22;10975;47.872;12.972;2023-08-08T03:41:44;11.90;99.90
21627;DHT22;10975;47.872;12.972;2023-08-08T03:44:11;11.90;99.90
21627;DHT22;10975;47.872;12.972;2023-08-08T03:46:38;11.80;99.90
21627;DHT22;10975;47.872;12.972;2023-08-08T03:49:04;11.70;99.90
21627;DHT22;10975;47.872;12.972;2023-08-08T03:51:31;11.70;99.90
21627;DHT22;10975;47.872;12.972;2023-08-08T03:53:58;11.60;99.90
21627;DHT22;10975;47.872;12.972;2023-08-08T03:56:25;11.50;99.90
21627;DHT22;10975;47.872;12.972;2023-08-08T03:58:51;11.50;99.90
21627;DHT22;10975;47.872;12.972;2023-08-08T04:01:18;11.40;99.90
21627;DHT22;10975;47.872;12.972;2023-08-08T04:03:45;11.40;99.90
21627;DHT22;10975;47.872;12.972;2023-08-08T04:06:12;11.40;99.90
21627;DHT22;10975;47.872;12.972;2023-08-08T04:08:38;11.40;99.90
21627;DHT22;10975;47.872;12.972;2023-08-08T04:11:05;11.30;99.90
21627;DHT22;10975;47.872;12.972;2023-08-08T04:13:32;11.20;99.90
21627;DHT22;10975;47.872;12.972;2023-08-08T04:15:59;11.30;99.90
21627;DHT22;10975;47.872;12.972;2023-08-08T04:18:26;11.30;99.90
21627;DHT22;10975;47.872;12.972;2023-08-08T04:20:53;11.40;99.90
21627;DHT22;10975;47.872;12.972;2023-08-08T04:23:19;11.40;99.90
21627;DHT22;10975;47.872;12.972;2023-08-08T04:25:46;11.50;99.90
21627;DHT22;10975;47.872;12.972;2023-08-08T04:28:13;11.40;99.90
21627;DHT22;10975;47.872;12.972;2023-08-08T04:30:40;11.50;99.90
21627;DHT22;10975;47.872;12.972;2023-08-08T04:33:06;11.50;99.90
21627;DHT22;10975;47.872;12.972;2023-08-08T04:35:33;11.60;99.90
21627;DHT22;10975;47.872;12.972;2023-08-08T04:38:00;11.70;99.90
21627;DHT22;10975;47.872;12.972;2023-08-08T04:40:27;11.80;99.90
21627;DHT22;10975;47.872;12.972;2023-08-08T04:42:53;11.90;99.90
21627;DHT22;10975;47.872;12.972;2023-08-08T04:45:20;12.00;99.90
21627;DHT22;10975;47.872;12.972;2023-08-08T04:47:47;12.00;99.90
21627;DHT22;10975;47.872;12.972;2023-08-08T04:50:14;12.10;99.90
21627;DHT22;10975;47.872;12.972;2023-08-08T04:52:41;12.20;99.90
21627;DHT22;10975;47.872;12.972;2023-08-08T04:55:08;12.10;99.90
21627;DHT22;10975;47.872;12.972;2023-08-08T04:57:34;12.10;99.90
21627;DHT22;10975;47.872;12.972;2023-08-08T05:00:01;12.10;99.90
21627;DHT22;10975;47.872;12.972;2023-08-08T05:02:31;12.10;99.90
21627;DHT22;10975;47.872;12.972;2023-08-08T05:04:58;12.10;99.90
21627;DHT22;10975;47.872;12.972;2023-08-08T05:07:25;12.10;99.90
21627;DHT22;10975;47.872;12.972;2023-08-08T05:09:51;12.00;99.90
21627;DHT22;10975;47.872;12.972;2023-08-08T05:12:18;12.00;99.90
21627;DHT22;10975;47.872;12.972;2023-08-08T05:14:45;12.00;99.90
21627;DHT22;10975;47.872;12.972;2023-08-08T05:17:11;12.10;99.90
21627;DHT22;10975;47.872;12.972;2023-08-08T05:19:38;12.10;99.90
21627;DHT22;10975;47.872;12.972;2023-08-08T05:22:05;12.10;99.90
21627;DHT22;10975;47.872;12.972;2023-08-08T05:24:32;12.10;99.90
21627;DHT22;10975;47.872;12.972;2023-08-08T05:26:58;12.20;99.90
21627;DHT22;10975;47.872;12.972;2023-08-08T05:29:25;12.20;99.90
21627;DHT22;10975;47.872;12.972;2023-08-08T05:31:52;12.40;99.90
21627;DHT22;10975;47.872;12.972;2023-08-08T05:34:18;12.60;99.90
21627;DHT22;10975;47.872;12.972;2023-08-08T05:36:45;12.80;99.90
21627;DHT22;10975;47.872;12.972;2023-08-08T05:39:12;12.90;99.90
21627;DHT22;10975;47.872;12.972;2023-08-08T05:41:38;13.10;99.90
21627;DHT22;10975;47.872;12.972;2023-08-08T05:44:05;13.20;99.90
21627;DHT22;10975;47.872;12.972;2023-08-08T05:46:32;13.30;99.90
21627;DHT22;10975;47.872;12.972;2023-08-08T05:48:58;13.30;99.90
21627;DHT22;10975;47.872;12.972;2023-08-08T05:51:25;13.30;99.90
21627;DHT22;10975;47.872;12.972;2023-08-08T05:53:52;13.30;99.90
21627;DHT22;10975;47.872;12.972;2023-08-08T05:56:19;13.30;99.90
21627;DHT22;10975;47.872;12.972;2023-08-08T05:58:45;13.30;99.90
21627;DHT22;10975;47.872;12.972;2023-08-08T06:01:12;13.40;99.90
21627;DHT22;10975;47.872;12.972;2023-08-08T06:03:39;13.50;99.90
21627;DHT22;10975;47.872;12.972;2023-08-08T06:06:06;13.70;99.90
21627;DHT22;10975;47.872;12.972;2023-08-08T06:08:33;13.80;99.90
21627;DHT22;10975;47.872;12.972;2023-08-08T06:10:59;13.90;99.90
21627;DHT22;10975;47.872;12.972;2023-08-08T06:13:26;14.00;99.90
21627;DHT22;10975;47.872;12.972;2023-08-08T06:15:53;14.10;99.90
21627;DHT22;10975;47.872;12.972;2023-08-08T06:18:20;14.10;99.90
21627;DHT22;10975;47.872;12.972;2023-08-08T06:20:46;14.10;99.90
21627;DHT22;10975;47.872;12.972;2023-08-08T06:23:13;14.20;99.90
21627;DHT22;10975;47.872;12.972;2023-08-08T06:25:41;14.20;99.90
21627;DHT22;10975;47.872;12.972;2023-08-08T06:28:08;14.30;99.90
21627;DHT22;10975;47.872;12.972;2023-08-08T06:30:35;14.40;99.90
21627;DHT22;10975;47.872;12.972;2023-08-08T06:33:02;14.50;99.90
21627;DHT22;10975;47.872;12.972;2023-08-08T06:35:28;14.60;99.90
21627;DHT22;10975;47.872;12.972;2023-08-08T06:37:55;14.60;99.90
21627;DHT22;10975;47.872;12.972;2023-08-08T06:40:22;14.60;99.90
21627;DHT22;10975;47.872;12.972;2023-08-08T06:42:50;14.50;99.90
21627;DHT22;10975;47.872;12.972;2023-08-08T06:45:16;14.50;99.90
21627;DHT22;10975;47.872;12.972;2023-08-08T06:47:43;14.50;99.90
21627;DHT22;10975;47.872;12.972;2023-08-08T06:50:10;14.60;99.90
21627;DHT22;10975;47.872;12.972;2023-08-08T06:52:37;14.60;99.90
21627;DHT22;10975;47.872;12.972;2023-08-08T06:55:03;14.70;99.90
21627;DHT22;10975;47.872;12.972;2023-08-08T06:57:32;14.70;99.90
21627;DHT22;10975;47.872;12.972;2023-08-08T06:59:59;14.80;99.90
21627;DHT22;10975;47.872;12.972;2023-08-08T07:02:25;14.90;99.90
21627;DHT22;10975;47.872;12.972;2023-08-08T07:04:52;15.00;99.90
21627;DHT22;10975;47.872;12.972;2023-08-08T07:07:19;15.10;99.90
21627;DHT22;10975;47.872;12.972;2023-08-08T07:09:46;15.20;99.90
21627;DHT22;10975;47.872;12.972;2023-08-08T07:12:14;15.30;99.90
21627;DHT22;10975;47.872;12.972;2023-08-08T07:14:40;15.40;99.90
21627;DHT22;10975;47.872;12.972;2023-08-08T07:17:07;15.40;99.90
21627;DHT22;10975;47.872;12.972;2023-08-08T07:19:35;15.50;99.90
21627;DHT22;10975;47.872;12.972;2023-08-08T07:22:02;15.60;99.90
21627;DHT22;10975;47.872;12.972;2023-08-08T07:24:29;15.70;99.90
21627;DHT22;10975;47.872;12.972;2023-08-08T07:26:57;15.80;99.90
21627;DHT22;10975;47.872;12.972;2023-08-08T07:29:24;15.90;99.90
21627;DHT22;10975;47.872;12.972;2023-08-08T07:31:52;15.90;99.90
21627;DHT22;10975;47.872;12.972;2023-08-08T07:34:19;15.70;99.90
21627;DHT22;10975;47.872;12.972;2023-08-08T07:36:46;15.60;99.90
21627;DHT22;10975;47.872;12.972;2023-08-08T07:39:13;15.60;99.90
21627;DHT22;10975;47.872;12.972;2023-08-08T07:41:40;15.70;99.90
21627;DHT22;10975;47.872;12.972;2023-08-08T07:44:07;15.80;99.90
21627;DHT22;10975;47.872;12.972;2023-08-08T07:46:33;15.90;99.90
21627;DHT22;10975;47.872;12.972;2023-08-08T07:49:00;16.00;99.90
21627;DHT22;10975;47.872;12.972;2023-08-08T07:51:30;16.10;99.90
21627;DHT22;10975;47.872;12.972;2023-08-08T07:53:57;16.20;99.90
21627;DHT22;10975;47.872;12.972;2023-08-08T07:56:24;16.30;99.90
21627;DHT22;10975;47.872;12.972;2023-08-08T07:58:51;16.40;99.90
21627;DHT22;10975;47.872;12.972;2023-08-08T08:01:18;16.40;99.90
21627;DHT22;10975;47.872;12.972;2023-08-08T08:03:45;16.50;99.90
21627;DHT22;10975;47.872;12.972;2023-08-08T08:06:12;16.50;99.90
21627;DHT22;10975;47.872;12.972;2023-08-08T08:08:39;16.60;99.90
21627;DHT22;10975;47.872;12.972;2023-08-08T08:11:05;16.60;99.90
21627;DHT22;10975;47.872;12.972;2023-08-08T08:13:32;16.70;99.90
21627;DHT22;10975;47.872;12.972;2023-08-08T08:15:59;16.70;99.90
21627;DHT22;10975;47.872;12.972;2023-08-08T08:18:26;16.80;99.90
21627;DHT22;10975;47.872;12.972;2023-08-08T08:20:52;16.90;99.90
21627;DHT22;10975;47.872;12.972;2023-08-08T08:23:19;17.00;99.90
21627;DHT22;10975;47.872;12.972;2023-08-08T08:25:46;17.10;99.90
21627;DHT22;10975;47.872;12.972;2023-08-08T08:28:12;17.10;99.90
21627;DHT22;10975;47.872;12.972;2023-08-08T08:30:39;17.20;99.90
21627;DHT22;10975;47.872;12.972;2023-08-08T08:33:06;17.20;99.90
21627;DHT22;10975;47.872;12.972;2023-08-08T08:35:34;17.30;99.90
21627;DHT22;10975;47.872;12.972;2023-08-08T08:38:01;17.30;99.90
21627;DHT22;10975;47.872;12.972;2023-08-08T08:40:29;17.40;99.90
21627;DHT22;10975;47.872;12.972;2023-08-08T08:42:56;17.40;99.90
21627;DHT22;10975;47.872;12.972;2023-08-08T08:45:23;17.40;99.90
21627;DHT22;10975;47.872;12.972;2023-08-08T08:47:50;17.40;99.90
21627;DHT22;10975;47.872;12.972;2023-08-08T08:50:22;17.40;99.90
21627;DHT22;10975;47.872;12.972;2023-08-08T08:52:49;17.40;99.90
21627;DHT22;10975;47.872;12.972;2023-08-08T08:55:16;17.40;99.90
21627;DHT22;10975;47.872;12.972;2023-08-08T08:57:43;17.40;99.90
21627;DHT22;10975;47.872;12.972;2023-08-08T09:00:11;17.50;99.90
21627;DHT22;10975;47.872;12.972;2023-08-08T09:02:38;17.60;99.90
21627;DHT22;10975;47.872;12.972;2023-08-08T09:05:05;17.60;99.90
21627;DHT22;10975;47.872;12.972;2023-08-08T09:07:32;17.70;99.90
21627;DHT22;10975;47.872;12.972;2023-08-08T09:10:01;17.80;99.90
21627;DHT22;10975;47.872;12.972;2023-08-08T09:12:28;17.80;99.90
21627;DHT22;10975;47.872;12.972;2023-08-08T09:14:55;17.90;99.90
21627;DHT22;10975;47.872;12.972;2023-08-08T09:17:25;18.00;99.90
21627;DHT22;10975;47.872;12.972;2023-08-08T09:20:12;18.00;99.90
21627;DHT22;10975;47.872;12.972;2023-08-08T09:22:39;18.00;99.90
21627;DHT22;10975;47.872;12.972;2023-08-08T09:25:06;18.10;99.90
21627;DHT22;10975;47.872;12.972;2023-08-08T09:27:37;18.10;99.90
21627;DHT22;10975;47.872;12.972;2023-08-08T09:30:04;18.20;99.90
21627;DHT22;10975;47.872;12.972;2023-08-08T09:32:31;18.30;99.90
21627;DHT22;10975;47.872;12.972;2023-08-08T09:34:59;18.40;99.90
21627;DHT22;10975;47.872;12.972;2023-08-08T09:37:27;18.40;99.90
21627;DHT22;10975;47.872;12.972;2023-08-08T09:40:01;18.40;99.90
21627;DHT22;10975;47.872;12.972;2023-08-08T09:42:29;18.50;99.90
21627;DHT22;10975;47.872;12.972;2023-08-08T09:44:56;18.50;99.90
21627;DHT22;10975;47.872;12.972;2023-08-08T09:47:24;18.60;99.90
21627;DHT22;10975;47.872;12.972;2023-08-08T09:49:50;18.60;99.90
21627;DHT22;10975;47.872;12.972;2023-08-08T09:52:17;18.70;99.90
21627;DHT22;10975;47.872;12.972;2023-08-08T09:54:45;18.70;99.90
21627;DHT22;10975;47.872;12.972;2023-08-08T09:57:13;18.70;99.90
21627;DHT22;10975;47.872;12.972;2023-08-08T09:59:39;18.70;99.90
21627;DHT22;10975;47.872;12.972;2023-08-08T10:02:06;18.70;99.90
21627;DHT22;10975;47.872;12.972;2023-08-08T10:04:36;18.80;99.90
21627;DHT22;10975;47.872;12.972;2023-08-08T10:07:02;18.80;99.90
21627;DHT22;10975;47.872;12.972;2023-08-08T10:09:30;19.00;99.90
21627;DHT22;10975;47.872;12.972;2023-08-08T10:11:57;19.10;99.90
21627;DHT22;10975;47.872;12.972;2023-08-08T10:14:32;19.20;99.90
21627;DHT22;10975;47.872;12.972;2023-08-08T10:17:02;19.30;99.90
21627;DHT22;10975;47.872;12.972;2023-08-08T10:19:29;19.50;99.90
21627;DHT22;10975;47.872;12.972;2023-08-08T10:21:59;19.50;99.90
21627;DHT22;10975;47.872;12.972;2023-08-08T10:24:32;19.60;99.90
21627;DHT22;10975;47.872;12.972;2023-08-08T10:26:59;19.80;99.90
21627;DHT22;10975;47.872;12.972;2023-08-08T10:29:27;19.90;99.90
21627;DHT22;10975;47.872;12.972;2023-08-08T10:31:58;19.90;99.90
21627;DHT22;10975;47.872;12.972;2023-08-08T10:34:44;19.80;99.90
21627;DHT22;10975;47.872;12.972;2023-08-08T10:37:13;19.80;99.90
21627;DHT22;10975;47.872;12.972;2023-08-08T10:42:41;20.00;99.90
21627;DHT22;10975;47.872;12.972;2023-08-08T10:45:12;20.10;99.90
21627;DHT22;10975;47.872;12.972;2023-08-08T10:47:40;20.10;99.90
21627;DHT22;10975;47.872;12.972;2023-08-08T10:50:16;20.10;99.90
21627;DHT22;10975;47.872;12.972;2023-08-08T11:00:20;20.70;99.90
21627;DHT22;10975;47.872;12.972;2023-08-08T11:02:49;20.80;99.90
21627;DHT22;10975;47.872;12.972;2023-08-08T11:05:17;20.60;99.90
21627;DHT22;10975;47.872;12.972;2023-08-08T11:07:44;20.50;99.90
21627;DHT22;10975;47.872;12.972;2023-08-08T11:10:11;20.60;99.90
21627;DHT22;10975;47.872;12.972;2023-08-08T11:12:39;20.60;99.90
21627;DHT22;10975;47.872;12.972;2023-08-08T11:15:08;20.60;99.90
21627;DHT22;10975;47.872;12.972;2023-08-08T11:17:35;20.80;99.90
21627;DHT22;10975;47.872;12.972;2023-08-08T11:20:02;20.80;99.90
21627;DHT22;10975;47.872;12.972;2023-08-08T11:22:30;20.70;99.90
21627;DHT22;10975;47.872;12.972;2023-08-08T11:24:57;20.70;99.90
21627;DHT22;10975;47.872;12.972;2023-08-08T11:27:29;20.70;99.90
21627;DHT22;10975;47.872;12.972;2023-08-08T11:29:59;20.80;99.90
21627;DHT22;10975;47.872;12.972;2023-08-08T11:32:26;20.80;99.90
21627;DHT22;10975;47.872;12.972;2023-08-08T11:35:04;20.80;99.90
21627;DHT22;10975;47.872;12.972;2023-08-08T11:37:37;20.80;99.90
21627;DHT22;10975;47.872;12.972;2023-08-08T11:40:05;21.00;99.90
21627;DHT22;10975;47.872;12.972;2023-08-08T11:42:40;21.00;99.90
21627;DHT22;10975;47.872;12.972;2023-08-08T11:45:43;21.10;99.90
21627;DHT22;10975;47.872;12.972;2023-08-08T11:48:10;21.30;99.90
21627;DHT22;10975;47.872;12.972;2023-08-08T11:50:47;21.30;99.90
21627;DHT22;10975;47.872;12.972;2023-08-08T11:53:27;21.30;99.90
21627;DHT22;10975;47.872;12.972;2023-08-08T11:56:08;21.20;99.90
21627;DHT22;10975;47.872;12.972;2023-08-08T11:58:35;21.50;99.90
21627;DHT22;10975;47.872;12.972;2023-08-08T12:01:05;21.40;99.90
21627;DHT22;10975;47.872;12.972;2023-08-08T12:03:32;21.60;99.90
21627;DHT22;10975;47.872;12.972;2023-08-08T12:06:00;21.60;99.90
21627;DHT22;10975;47.872;12.972;2023-08-08T12:08:31;21.50;99.90
21627;DHT22;10975;47.872;12.972;2023-08-08T12:11:01;21.60;99.90
21627;DHT22;10975;47.872;12.972;2023-08-08T12:13:28;22.00;99.90
21627;DHT22;10975;47.872;12.972;2023-08-08T12:16:02;22.00;99.90
21627;DHT22;10975;47.872;12.972;2023-08-08T12:18:45;22.10;99.90
21627;DHT22;10975;47.872;12.972;2023-08-08T12:21:32;22.20;99.90
21627;DHT22;10975;47.872;12.972;2023-08-08T12:24:00;22.00;99.90
21627;DHT22;10975;47.872;12.972;2023-08-08T12:26:26;21.80;99.90
21627;DHT22;10975;47.872;12.972;2023-08-08T12:28:53;22.00;99.90
21627;DHT22;10975;47.872;12.972;2023-08-08T12:31:21;22.00;99.90
21627;DHT22;10975;47.872;12.972;2023-08-08T12:33:48;22.10;99.90
21627;DHT22;10975;47.872;12.972;2023-08-08T12:36:15;21.90;99.90
21627;DHT22;10975;47.872;12.972;2023-08-08T12:38:42;21.80;99.90
21627;DHT22;10975;47.872;12.972;2023-08-08T12:41:09;21.80;99.90
21627;DHT22;10975;47.872;12.972;2023-08-08T12:43:37;21.80;99.90
21627;DHT22;10975;47.872;12.972;2023-08-08T12:46:04;22.00;99.90
21627;DHT22;10975;47.872;12.972;2023-08-08T12:48:31;22.00;99.90
21627;DHT22;10975;47.872;12.972;2023-08-08T12:50:57;22.00;99.90
21627;DHT22;10975;47.872;12.972;2023-08-08T12:53:24;22.10;99.90
21627;DHT22;10975;47.872;12.972;2023-08-08T12:55:51;21.80;99.90
21627;DHT22;10975;47.872;12.972;2023-08-08T12:58:18;21.90;99.90
21627;DHT22;10975;47.872;12.972;2023-08-08T13:00:45;22.00;99.90
21627;DHT22;10975;47.872;12.972;2023-08-08T13:03:12;21.90;99.90
21627;DHT22;10975;47.872;12.972;2023-08-08T13:05:39;22.00;99.90
21627;DHT22;10975;47.872;12.972;2023-08-08T13:08:06;22.10;99.90
21627;DHT22;10975;47.872;12.972;2023-08-08T13:10:33;22.00;99.90
21627;DHT22;10975;47.872;12.972;2023-08-08T13:13:00;22.00;99.90
21627;DHT22;10975;47.872;12.972;2023-08-08T13:15:27;21.80;99.90
21627;DHT22;10975;47.872;12.972;2023-08-08T13:17:54;21.90;99.90
21627;DHT22;10975;47.872;12.972;2023-08-08T13:20:21;22.10;99.90
21627;DHT22;10975;47.872;12.972;2023-08-08T13:22:48;21.90;99.90
21627;DHT22;10975;47.872;12.972;2023-08-08T13:25:15;22.00;99.90
21627;DHT22;10975;47.872;12.972;2023-08-08T13:27:42;22.10;99.90
21627;DHT22;10975;47.872;12.972;2023-08-08T13:30:09;22.20;99.90
21627;DHT22;10975;47.872;12.972;2023-08-08T13:32:36;22.20;99.90
21627;DHT22;10975;47.872;12.972;2023-08-08T13:35:03;22.20;99.90
21627;DHT22;10975;47.872;12.972;2023-08-08T13:37:29;22.30;99.90
21627;DHT22;10975;47.872;12.972;2023-08-08T13:39:56;22.50;99.90
21627;DHT22;10975;47.872;12.972;2023-08-08T13:42:23;22.50;99.90
21627;DHT22;10975;47.872;12.972;2023-08-08T13:44:49;22.40;99.90
21627;DHT22;10975;47.872;12.972;2023-08-08T13:47:19;22.30;99.90
21627;DHT22;10975;47.872;12.972;2023-08-08T13:49:46;22.10;99.90
21627;DHT22;10975;47.872;12.972;2023-08-08T13:52:13;22.30;99.90
21627;DHT22;10975;47.872;12.972;2023-08-08T13:54:40;22.30;99.90
21627;DHT22;10975;47.872;12.972;2023-08-08T13:57:07;22.50;99.90
21627;DHT22;10975;47.872;12.972;2023-08-08T13:59:33;22.40;99.90
21627;DHT22;10975;47.872;12.972;2023-08-08T14:02:00;22.20;99.90
21627;DHT22;10975;47.872;12.972;2023-08-08T14:04:27;22.30;99.90
21627;DHT22;10975;47.872;12.972;2023-08-08T14:06:54;22.40;99.90
21627;DHT22;10975;47.872;12.972;2023-08-08T14:09:21;22.20;99.90
21627;DHT22;10975;47.872;12.972;2023-08-08T14:11:49;22.30;99.90
21627;DHT22;10975;47.872;12.972;2023-08-08T14:14:16;22.50;99.90
21627;DHT22;10975;47.872;12.972;2023-08-08T14:16:42;22.50;99.90
21627;DHT22;10975;47.872;12.972;2023-08-08T14:19:09;22.50;99.90
21627;DHT22;10975;47.872;12.972;2023-08-08T14:21:36;22.50;99.90
21627;DHT22;10975;47.872;12.972;2023-08-08T14:24:03;22.60;99.90
21627;DHT22;10975;47.872;12.972;2023-08-08T14:26:30;22.60;99.90
21627;DHT22;10975;47.872;12.972;2023-08-08T14:28:57;22.40;99.90
21627;DHT22;10975;47.872;12.972;2023-08-08T14:31:23;22.30;99.90
21627;DHT22;10975;47.872;12.972;2023-08-08T14:33:50;22.30;99.90
21627;DHT22;10975;47.872;12.972;2023-08-08T14:36:17;22.40;99.90
21627;DHT22;10975;47.872;12.972;2023-08-08T14:38:44;22.40;99.90
21627;DHT22;10975;47.872;12.972;2023-08-08T14:41:10;22.50;99.90
21627;DHT22;10975;47.872;12.972;2023-08-08T14:43:37;22.30;99.90
21627;DHT22;10975;47.872;12.972;2023-08-08T14:46:04;22.10;99.90
21627;DHT22;10975;47.872;12.972;2023-08-08T14:48:30;22.10;99.90
21627;DHT22;10975;47.872;12.972;2023-08-08T14:50:59;22.20;99.90
21627;DHT22;10975;47.872;12.972;2023-08-08T14:53:26;22.20;99.90
21627;DHT22;10975;47.872;12.972;2023-08-08T14:55:52;22.40;99.90
21627;DHT22;10975;47.872;12.972;2023-08-08T14:58:19;22.30;99.90
21627;DHT22;10975;47.872;12.972;2023-08-08T15:00:46;22.20;99.90
21627;DHT22;10975;47.872;12.972;2023-08-08T15:03:14;22.30;99.90
21627;DHT22;10975;47.872;12.972;2023-08-08T15:05:41;22.30;99.90
21627;DHT22;10975;47.872;12.972;2023-08-08T15:08:08;22.40;99.90
21627;DHT22;10975;47.872;12.972;2023-08-08T15:10:36;22.40;99.90
21627;DHT22;10975;47.872;12.972;2023-08-08T15:13:03;22.40;99.90
21627;DHT22;10975;47.872;12.972;2023-08-08T15:15:29;22.40;99.90
21627;DHT22;10975;47.872;12.972;2023-08-08T15:17:56;22.40;99.90
21627;DHT22;10975;47.872;12.972;2023-08-08T15:20:23;22.50;99.90
21627;DHT22;10975;47.872;12.972;2023-08-08T15:22:50;22.30;99.90
21627;DHT22;10975;47.872;12.972;2023-08-08T15:25:17;22.00;99.90
21627;DHT22;10975;47.872;12.972;2023-08-08T15:27:43;21.80;99.90
21627;DHT22;10975;47.872;12.972;2023-08-08T15:30:10;21.70;99.90